Time;durP1;ratioP1;P1;durP2;ratioP2;P2;SDS_P1;SDS_P2;PMS_P1;PMS_P2;Temp;Humidity;BMP_temperature;BMP_pressure;BME280_temperature;BME280_humidity;BME280_pressure;Samples;Min_cycle;Max_cycle;Signal;HPM_P1;HPM_P2
2022/08/25 00:01:39;;;;;;;5.72;5.18;;;23.30;99.90;;;;;;5109830;28;20206;-69
2022/08/25 00:04:09;;;;;;;7.55;5.68;;;23.30;99.90;;;;;;5109975;28;20198;-69
2022/08/25 00:06:37;;;;;;;9.93;5.38;;;23.30;99.90;;;;;;5107317;28;20230;-68
2022/08/25 00:09:06;;;;;;;7.47;5.55;;;23.30;99.90;;;;;;5096411;28;20203;-69
2022/08/25 00:11:34;;;;;;;9.20;5.63;;;23.30;99.90;;;;;;5089394;28;20214;-69
2022/08/25 00:14:05;;;;;;;7.00;6.30;;;23.30;99.90;;;;;;5104191;28;20217;-69
2022/08/25 00:16:32;;;;;;;6.78;6.18;;;23.20;99.90;;;;;;5108811;28;20687;-70
2022/08/25 00:19:02;;;;;;;8.60;5.75;;;23.20;99.90;;;;;;5109520;28;20203;-70
2022/08/25 00:21:30;;;;;;;6.13;5.53;;;23.20;99.90;;;;;;5095233;28;20256;-69
2022/08/25 00:23:58;;;;;;;9.63;6.32;;;23.10;99.90;;;;;;5104235;28;20821;-69
2022/08/25 00:26:26;;;;;;;6.53;6.00;;;23.10;99.90;;;;;;5109274;28;20658;-69
2022/08/25 00:28:53;;;;;;;7.20;5.82;;;23.10;99.90;;;;;;5109454;28;20204;-69
2022/08/25 00:31:22;;;;;;;6.13;5.53;;;23.10;99.90;;;;;;5108891;28;20206;-69
2022/08/25 00:33:50;;;;;;;9.80;6.20;;;23.10;99.90;;;;;;5088951;28;20206;-69
2022/08/25 00:36:18;;;;;;;7.72;6.05;;;23.00;99.90;;;;;;5103325;28;20745;-69
2022/08/25 00:38:47;;;;;;;8.38;5.82;;;23.00;99.90;;;;;;5101594;28;20199;-69
2022/08/25 00:41:19;;;;;;;6.47;5.75;;;23.00;99.90;;;;;;5088508;28;20199;-69
2022/08/25 00:43:50;;;;;;;6.22;5.60;;;23.00;99.90;;;;;;5101602;28;20198;-69
2022/08/25 00:46:22;;;;;;;6.47;5.68;;;23.00;99.90;;;;;;5108616;27;20282;-69
2022/08/25 00:48:53;;;;;;;7.65;5.95;;;23.00;99.90;;;;;;5097527;27;20198;-69
2022/08/25 00:51:27;;;;;;;7.75;6.55;;;23.00;99.90;;;;;;5098951;28;20237;-69
2022/08/25 00:53:54;;;;;;;7.38;5.97;;;23.00;99.90;;;;;;5109014;28;20200;-69
2022/08/25 00:56:22;;;;;;;10.32;6.03;;;22.90;99.90;;;;;;5108374;28;20226;-69
2022/08/25 00:58:51;;;;;;;6.35;5.72;;;22.90;99.90;;;;;;5097322;28;20207;-69
2022/08/25 01:01:18;;;;;;;8.20;6.13;;;22.90;99.90;;;;;;5088481;28;20211;-69
2022/08/25 01:03:45;;;;;;;8.05;6.13;;;22.90;99.90;;;;;;5094479;28;20649;-69
2022/08/25 01:06:11;;;;;;;6.38;5.80;;;22.90;99.90;;;;;;5106745;28;20202;-69
2022/08/25 01:08:38;;;;;;;7.07;6.18;;;22.90;99.90;;;;;;5088316;28;20203;-69
2022/08/25 01:11:08;;;;;;;7.00;6.25;;;22.80;99.90;;;;;;5088279;28;20205;-69
2022/08/25 01:13:40;;;;;;;6.93;6.25;;;22.80;99.90;;;;;;5104582;28;20320;-69
2022/08/25 01:16:08;;;;;;;7.40;6.70;;;22.80;99.90;;;;;;5108069;28;20218;-69
2022/08/25 01:18:50;;;;;;;8.85;6.75;;;22.80;99.90;;;;;;5108427;28;20202;-69
2022/08/25 01:21:21;;;;;;;7.30;6.60;;;22.80;99.90;;;;;;5092226;28;20822;-69
2022/08/25 01:23:50;;;;;;;8.52;7.10;;;22.70;99.90;;;;;;5096778;28;20653;-69
2022/08/25 01:26:19;;;;;;;9.25;6.50;;;22.70;99.90;;;;;;5100839;28;20321;-69
2022/08/25 01:31:33;;;;;;;8.05;5.95;;;22.70;99.90;;;;;;5087544;28;20277;-67
2022/08/25 01:34:00;;;;;;;6.43;5.88;;;22.70;99.90;;;;;;5088143;28;20203;-68
2022/08/25 01:36:30;;;;;;;10.48;6.85;;;22.70;99.90;;;;;;5096767;28;20598;-68
2022/08/25 01:38:57;;;;;;;9.18;6.50;;;22.60;99.90;;;;;;5100770;28;20203;-68
2022/08/25 01:41:36;;;;;;;7.13;6.40;;;22.60;99.90;;;;;;5087884;28;20203;-68
2022/08/25 01:44:05;;;;;;;8.05;6.72;;;22.60;99.90;;;;;;5103257;28;20206;-68
2022/08/25 01:46:33;;;;;;;6.88;6.28;;;22.60;99.90;;;;;;5105492;28;20206;-68
2022/08/25 01:49:01;;;;;;;6.68;6.05;;;22.50;99.90;;;;;;5088055;28;20289;-68
2022/08/25 01:51:35;;;;;;;6.70;6.00;;;22.50;99.90;;;;;;5087428;28;20717;-68
2022/08/25 01:54:01;;;;;;;10.60;6.75;;;22.50;99.90;;;;;;5087494;28;20661;-68
2022/08/25 01:56:28;;;;;;;7.28;6.55;;;22.50;99.90;;;;;;5087493;28;20230;-68
2022/08/25 01:58:55;;;;;;;8.45;6.63;;;22.50;99.90;;;;;;5087810;28;20375;-68
2022/08/25 02:01:25;;;;;;;8.27;6.30;;;22.40;99.90;;;;;;5096708;28;20672;-68
2022/08/25 02:03:54;;;;;;;6.78;6.13;;;22.40;99.90;;;;;;5087354;28;20202;-68
2022/08/25 02:06:25;;;;;;;7.80;6.47;;;22.40;99.90;;;;;;5087579;28;20214;-68
2022/08/25 02:08:56;;;;;;;8.38;6.90;;;22.30;99.90;;;;;;5087678;28;20230;-68
2022/08/25 02:11:23;;;;;;;8.43;6.43;;;22.40;99.90;;;;;;5087812;28;20601;-68
2022/08/25 02:13:51;;;;;;;7.30;6.53;;;22.30;99.90;;;;;;5101001;28;20209;-68
2022/08/25 02:16:22;;;;;;;7.40;6.50;;;22.30;99.90;;;;;;5107718;28;20241;-68
2022/08/25 02:18:48;;;;;;;7.72;6.97;;;22.30;99.90;;;;;;5107791;28;20213;-69
2022/08/25 02:21:15;;;;;;;10.57;7.07;;;22.30;99.90;;;;;;5107899;28;20210;-69
2022/08/25 02:23:42;;;;;;;7.28;6.65;;;22.30;99.90;;;;;;5103877;28;20203;-68
2022/08/25 02:26:11;;;;;;;8.48;7.22;;;22.30;99.90;;;;;;5087481;28;20219;-68
2022/08/25 02:28:37;;;;;;;7.10;6.35;;;22.30;99.90;;;;;;5100476;28;20221;-69
2022/08/25 02:31:07;;;;;;;7.22;6.53;;;22.30;99.90;;;;;;5107369;28;20206;-68
2022/08/25 02:33:34;;;;;;;7.35;6.72;;;22.30;99.90;;;;;;5108821;28;20206;-69
2022/08/25 02:36:07;;;;;;;7.72;6.97;;;22.30;99.90;;;;;;5107219;28;20586;-68
2022/08/25 02:38:34;;;;;;;10.52;7.03;;;22.30;99.90;;;;;;5091181;28;20191;-69
2022/08/25 02:41:04;;;;;;;10.57;6.95;;;22.20;99.90;;;;;;5091159;28;20711;-69
2022/08/25 02:43:32;;;;;;;7.80;6.93;;;22.20;99.90;;;;;;5093566;28;20199;-70
2022/08/25 02:45:59;;;;;;;8.75;6.47;;;22.20;99.90;;;;;;5091058;28;20207;-68
2022/08/25 02:48:25;;;;;;;13.20;6.45;;;22.20;99.90;;;;;;5097424;28;20205;-68
2022/08/25 02:50:54;;;;;;;7.88;7.03;;;22.10;99.90;;;;;;5107602;28;20225;-68
2022/08/25 02:53:22;;;;;;;7.75;7.00;;;22.10;99.90;;;;;;5090757;28;20211;-68
2022/08/25 02:55:49;;;;;;;8.50;7.05;;;22.10;99.90;;;;;;5093236;28;20232;-68
2022/08/25 02:58:15;;;;;;;9.17;6.93;;;22.10;99.90;;;;;;5110869;28;20202;-68
2022/08/25 03:00:44;;;;;;;9.68;7.10;;;22.10;99.90;;;;;;5100441;28;20234;-67
2022/08/25 03:03:11;;;;;;;7.97;6.70;;;22.10;99.90;;;;;;5090693;28;20215;-67
2022/08/25 03:05:38;;;;;;;8.23;7.00;;;22.10;99.90;;;;;;5090727;28;20213;-69
2022/08/25 03:08:06;;;;;;;8.20;6.53;;;22.00;99.90;;;;;;5109320;28;20194;-69
2022/08/25 03:10:34;;;;;;;7.90;7.10;;;22.10;99.90;;;;;;5110592;28;20661;-68
2022/08/25 03:13:01;;;;;;;8.05;7.28;;;22.00;99.90;;;;;;5101814;28;20210;-68
2022/08/25 03:15:28;;;;;;;8.63;7.70;;;22.00;99.90;;;;;;5110695;28;20217;-68
2022/08/25 03:17:56;;;;;;;15.63;6.80;;;22.00;99.90;;;;;;5108514;27;20206;-67
2022/08/25 03:20:26;;;;;;;8.63;6.57;;;22.00;99.90;;;;;;5107566;28;20209;-68
2022/08/25 03:22:53;;;;;;;8.18;7.43;;;22.00;99.90;;;;;;5108512;28;20255;-68
2022/08/25 03:28:06;;;;;;;12.10;6.68;;;22.00;99.90;;;;;;5108240;28;20201;-68
2022/08/25 03:30:33;;;;;;;9.48;7.07;;;21.90;99.90;;;;;;5108101;28;20217;-68
2022/08/25 03:33:01;;;;;;;11.80;7.73;;;21.90;99.90;;;;;;5108150;28;20703;-68
2022/08/25 03:35:28;;;;;;;8.70;6.95;;;21.90;99.90;;;;;;5103875;28;20230;-67
2022/08/25 03:37:56;;;;;;;8.70;7.40;;;21.80;99.90;;;;;;5088814;28;20199;-68
2022/08/25 03:40:23;;;;;;;11.05;7.55;;;21.80;99.90;;;;;;5100843;28;20213;-68
2022/08/25 03:42:50;;;;;;;13.35;7.70;;;21.80;99.90;;;;;;5108421;28;20218;-68
2022/08/25 03:45:18;;;;;;;9.93;7.35;;;21.80;99.90;;;;;;5102639;28;20750;-68
2022/08/25 03:47:48;;;;;;;11.77;7.65;;;21.80;99.90;;;;;;5100812;28;20747;-68
2022/08/25 03:50:18;;;;;;;11.68;7.53;;;21.80;99.90;;;;;;5108069;28;20281;-67
2022/08/25 03:52:50;;;;;;;10.93;7.68;;;21.80;99.90;;;;;;5099983;28;20269;-67
2022/08/25 03:55:17;;;;;;;12.47;8.10;;;21.70;99.90;;;;;;5090920;28;20275;-68
2022/08/25 03:57:44;;;;;;;11.40;7.23;;;21.70;99.90;;;;;;5108270;28;20239;-68
2022/08/25 04:00:11;;;;;;;9.38;7.70;;;21.70;99.90;;;;;;5107825;28;20210;-68
2022/08/25 04:02:38;;;;;;;13.52;8.02;;;21.70;99.90;;;;;;5105208;28;20236;-68
2022/08/25 04:05:06;;;;;;;11.60;8.18;;;21.60;99.90;;;;;;5109364;28;20202;-68
2022/08/25 04:07:34;;;;;;;10.43;8.25;;;21.60;99.90;;;;;;5108365;27;20218;-67
2022/08/25 04:10:01;;;;;;;9.63;7.88;;;21.60;99.90;;;;;;5108456;28;20201;-67
2022/08/25 04:12:28;;;;;;;9.90;7.87;;;21.50;99.90;;;;;;5108135;28;20202;-68
2022/08/25 04:14:55;;;;;;;8.60;7.13;;;21.50;99.90;;;;;;5106460;28;20556;-67
2022/08/25 04:17:21;;;;;;;9.00;8.07;;;21.50;99.90;;;;;;5099725;28;20299;-67
2022/08/25 04:19:49;;;;;;;9.40;8.50;;;21.50;99.90;;;;;;5108521;28;20194;-67
2022/08/25 04:22:16;;;;;;;10.30;8.37;;;21.50;99.90;;;;;;5104099;28;20743;-68
2022/08/25 04:24:44;;;;;;;22.73;10.00;;;21.50;99.90;;;;;;5104446;28;20301;-69
2022/08/25 04:27:11;;;;;;;11.87;9.03;;;21.50;99.90;;;;;;5108344;28;20202;-68
2022/08/25 04:29:38;;;;;;;10.25;9.20;;;21.50;99.90;;;;;;5108510;28;20205;-68
2022/08/25 04:32:05;;;;;;;11.77;10.57;;;21.50;99.90;;;;;;5107908;28;20547;-67
2022/08/25 04:34:32;;;;;;;13.03;11.13;;;21.50;99.90;;;;;;5106451;28;20233;-67
2022/08/25 04:37:01;;;;;;;12.82;11.52;;;21.50;99.90;;;;;;5107157;28;20711;-67
2022/08/25 04:39:28;;;;;;;14.60;12.10;;;21.30;99.90;;;;;;5108375;28;20198;-67
2022/08/25 04:41:56;;;;;;;17.05;12.80;;;21.30;99.90;;;;;;5108108;28;20206;-67
2022/08/25 04:44:24;;;;;;;14.30;12.87;;;21.30;99.90;;;;;;5092129;28;20205;-67
2022/08/25 04:46:51;;;;;;;16.90;12.20;;;21.20;99.90;;;;;;5106363;28;20259;-67
2022/08/25 04:49:18;;;;;;;15.33;13.13;;;21.20;99.90;;;;;;5107973;28;20202;-67
2022/08/25 04:51:45;;;;;;;12.83;11.57;;;21.30;99.90;;;;;;5107264;28;20229;-67
2022/08/25 04:54:16;;;;;;;14.60;13.07;;;21.30;99.90;;;;;;5095985;28;20216;-67
2022/08/25 04:56:43;;;;;;;16.23;13.10;;;21.30;99.90;;;;;;5105004;28;20308;-67
2022/08/25 04:59:14;;;;;;;15.70;12.77;;;21.30;99.90;;;;;;5106451;28;20283;-67
2022/08/25 05:01:42;;;;;;;15.47;13.30;;;21.30;99.90;;;;;;5106389;28;20983;-68
2022/08/25 05:04:12;;;;;;;18.57;14.80;;;21.40;99.90;;;;;;5106321;28;20685;-68
2022/08/25 05:06:39;;;;;;;17.30;13.50;;;21.30;99.90;;;;;;5096274;28;20672;-68
2022/08/25 05:09:06;;;;;;;16.93;13.70;;;21.30;99.90;;;;;;5100652;28;20209;-68
2022/08/25 05:11:33;;;;;;;15.60;13.70;;;21.40;99.90;;;;;;5107230;28;20690;-68
2022/08/25 05:14:01;;;;;;;17.53;14.00;;;21.30;99.90;;;;;;5107446;28;20198;-68
2022/08/25 05:16:30;;;;;;;16.38;14.35;;;21.30;99.90;;;;;;5106787;28;20240;-68
2022/08/25 05:18:57;;;;;;;17.80;14.40;;;21.30;99.90;;;;;;5107695;28;20198;-68
2022/08/25 05:21:26;;;;;;;18.17;14.63;;;21.20;99.90;;;;;;5107909;28;20566;-68
2022/08/25 05:23:56;;;;;;;20.35;14.30;;;21.20;99.90;;;;;;5101125;28;20684;-68
2022/08/25 05:26:25;;;;;;;17.38;13.77;;;21.20;99.90;;;;;;5106235;28;20221;-68
2022/08/25 05:28:54;;;;;;;17.07;14.33;;;21.20;99.90;;;;;;5103607;28;20198;-68
2022/08/25 05:31:22;;;;;;;17.23;15.10;;;21.30;99.90;;;;;;5105089;28;20210;-68
2022/08/25 05:33:51;;;;;;;18.97;14.73;;;21.30;99.90;;;;;;5096005;28;20202;-68
2022/08/25 05:36:19;;;;;;;16.33;14.27;;;21.30;99.90;;;;;;5107425;28;20887;-68
2022/08/25 05:38:46;;;;;;;19.07;14.53;;;21.40;99.90;;;;;;5103990;28;20210;-68
2022/08/25 05:41:15;;;;;;;18.98;14.88;;;21.40;99.90;;;;;;5106972;28;20209;-68
2022/08/25 05:43:43;;;;;;;17.65;15.13;;;21.40;99.90;;;;;;5103769;28;20205;-68
2022/08/25 05:46:11;;;;;;;20.67;16.15;;;21.40;99.90;;;;;;5106882;28;20208;-68
2022/08/25 05:48:39;;;;;;;18.48;15.48;;;21.40;99.90;;;;;;5106450;28;20206;-68
2022/08/25 05:51:12;;;;;;;18.92;16.05;;;21.40;99.90;;;;;;5106820;28;20222;-68
2022/08/25 05:53:40;;;;;;;20.93;15.47;;;21.40;99.90;;;;;;5104990;28;20196;-68
2022/08/25 05:56:08;;;;;;;18.50;15.50;;;21.50;99.90;;;;;;5104754;28;20203;-68
2022/08/25 05:58:35;;;;;;;20.17;15.38;;;21.40;99.90;;;;;;5103378;28;20202;-68
2022/08/25 06:02:39;;;;;;;17.52;15.38;;;21.40;99.90;;;;;;5106612;28;20199;-68
2022/08/25 06:03:52;;;;;;;22.27;16.50;;;21.40;99.90;;;;;;5103930;28;20198;-68
2022/08/25 06:06:22;;;;;;;17.13;15.02;;;21.40;99.90;;;;;;5106634;28;20251;-68
2022/08/25 06:08:49;;;;;;;22.40;14.63;;;21.40;99.90;;;;;;5110106;28;20205;-68
2022/08/25 06:11:16;;;;;;;16.53;14.23;;;21.40;99.90;;;;;;5105634;27;20199;-68
2022/08/25 06:13:43;;;;;;;21.73;14.50;;;21.30;99.90;;;;;;5100225;28;20878;-68
2022/08/25 06:16:10;;;;;;;15.23;12.43;;;21.30;99.90;;;;;;5110009;28;20210;-68
2022/08/25 06:18:36;;;;;;;20.17;13.63;;;21.30;99.90;;;;;;5110632;28;20201;-68
2022/08/25 06:21:11;;;;;;;15.60;13.77;;;21.30;99.90;;;;;;5108777;27;20198;-68
2022/08/25 06:23:40;;;;;;;15.38;12.23;;;21.40;99.90;;;;;;5107833;28;20198;-68
2022/08/25 06:26:09;;;;;;;18.43;14.13;;;21.50;99.90;;;;;;5111897;28;20300;-68
2022/08/25 06:28:36;;;;;;;18.27;14.47;;;21.50;99.90;;;;;;5108769;28;20210;-68
2022/08/25 06:31:06;;;;;;;15.45;13.23;;;21.50;99.90;;;;;;5092656;28;20657;-67
2022/08/25 06:33:33;;;;;;;16.13;13.75;;;21.50;99.90;;;;;;5096828;28;20202;-67
2022/08/25 06:36:00;;;;;;;16.60;13.67;;;21.60;99.90;;;;;;5102867;28;20214;-67
2022/08/25 06:38:27;;;;;;;19.57;14.63;;;21.60;99.90;;;;;;5108909;28;20236;-68
2022/08/25 06:40:55;;;;;;;15.38;13.50;;;21.60;99.90;;;;;;5110463;28;20190;-68
2022/08/25 06:43:23;;;;;;;15.57;14.03;;;21.50;99.90;;;;;;5099546;28;20656;-67
2022/08/25 06:45:49;;;;;;;17.50;14.73;;;21.60;99.90;;;;;;5104118;28;20282;-67
2022/08/25 06:48:16;;;;;;;17.40;13.67;;;21.60;99.90;;;;;;5103926;28;20672;-67
2022/08/25 06:50:43;;;;;;;16.02;13.60;;;21.60;99.90;;;;;;5110325;28;20218;-67
2022/08/25 06:53:10;;;;;;;16.23;14.02;;;21.50;99.90;;;;;;5110369;27;20202;-67
2022/08/25 06:55:37;;;;;;;15.23;13.23;;;21.60;99.90;;;;;;5110572;28;20206;-67
2022/08/25 06:58:05;;;;;;;15.77;14.10;;;21.60;99.90;;;;;;5110177;28;20229;-67
2022/08/25 07:00:33;;;;;;;18.17;14.53;;;21.70;99.90;;;;;;5108946;28;20198;-67
2022/08/25 07:03:00;;;;;;;14.60;12.80;;;21.80;99.90;;;;;;5110616;27;20213;-67
2022/08/25 07:05:28;;;;;;;16.70;14.18;;;21.80;99.90;;;;;;5110881;28;20301;-67
2022/08/25 07:07:55;;;;;;;17.02;12.90;;;21.90;99.90;;;;;;5110415;28;20675;-69
2022/08/25 07:10:21;;;;;;;15.02;13.43;;;22.00;99.90;;;;;;5098928;28;20229;-67
2022/08/25 07:12:49;;;;;;;14.75;13.23;;;21.90;99.90;;;;;;5107136;28;20725;-67
2022/08/25 07:15:17;;;;;;;14.63;13.23;;;21.90;99.90;;;;;;5110239;28;20206;-67
2022/08/25 07:17:44;;;;;;;15.77;13.80;;;22.00;99.90;;;;;;5109606;28;20226;-67
2022/08/25 07:20:11;;;;;;;16.35;13.80;;;21.90;99.90;;;;;;5108692;28;20360;-67
2022/08/25 07:22:39;;;;;;;16.40;14.70;;;21.90;99.90;;;;;;5108929;28;20289;-67
2022/08/25 07:25:07;;;;;;;17.23;15.43;;;21.80;99.90;;;;;;5109032;28;20628;-67
2022/08/25 07:27:34;;;;;;;21.70;15.10;;;21.80;99.90;;;;;;5109139;28;20202;-67
2022/08/25 07:30:01;;;;;;;16.50;14.87;;;21.80;99.90;;;;;;5109457;28;20221;-68
2022/08/25 07:32:29;;;;;;;16.20;14.43;;;21.90;99.90;;;;;;5103928;28;20206;-68
2022/08/25 07:37:41;;;;;;;15.82;14.18;;;22.00;99.90;;;;;;5106003;28;20287;-68
2022/08/25 07:40:10;;;;;;;15.95;14.13;;;22.00;99.90;;;;;;5107893;28;20740;-68
2022/08/25 07:42:37;;;;;;;15.80;14.10;;;22.10;99.90;;;;;;5106645;28;20202;-68
2022/08/25 07:45:05;;;;;;;18.73;14.55;;;22.10;99.90;;;;;;5108644;28;20194;-67
2022/08/25 07:47:33;;;;;;;15.95;14.07;;;22.10;99.90;;;;;;5106947;28;20217;-67
2022/08/25 07:50:00;;;;;;;16.00;14.10;;;22.10;99.90;;;;;;5105304;28;20905;-68
2022/08/25 07:52:27;;;;;;;15.68;12.35;;;22.20;99.90;;;;;;5108739;27;20205;-67
2022/08/25 07:54:54;;;;;;;14.68;12.60;;;22.20;99.90;;;;;;5109144;28;20202;-66
2022/08/25 07:57:23;;;;;;;12.93;11.57;;;22.40;99.90;;;;;;5108532;28;20753;-67
2022/08/25 07:59:50;;;;;;;21.02;13.52;;;22.50;99.90;;;;;;5107806;28;20293;-67
2022/08/25 08:02:17;;;;;;;14.98;13.57;;;22.60;99.90;;;;;;5102644;28;20198;-67
2022/08/25 08:04:47;;;;;;;14.40;12.65;;;22.70;99.90;;;;;;5106581;28;20222;-67
2022/08/25 08:07:16;;;;;;;13.73;12.45;;;22.70;99.90;;;;;;5106716;28;20202;-68
2022/08/25 08:09:43;;;;;;;17.50;13.55;;;22.80;99.90;;;;;;5108337;28;20206;-68
2022/08/25 08:12:10;;;;;;;17.33;12.82;;;22.80;99.90;;;;;;5108529;28;20209;-68
2022/08/25 08:14:37;;;;;;;31.63;14.48;;;22.90;99.90;;;;;;5105438;28;20195;-68
2022/08/25 08:17:07;;;;;;;19.70;14.50;;;22.90;99.90;;;;;;5108225;28;20201;-67
2022/08/25 08:19:34;;;;;;;22.50;15.77;;;23.00;99.90;;;;;;5108169;28;20202;-68
2022/08/25 08:22:03;;;;;;;16.27;14.13;;;23.00;99.90;;;;;;5108011;28;20206;-67
2022/08/25 08:24:30;;;;;;;16.02;14.27;;;23.00;99.90;;;;;;5104947;28;20244;-67
2022/08/25 08:26:58;;;;;;;18.52;14.10;;;23.10;99.90;;;;;;5106585;28;20230;-68
2022/08/25 08:29:25;;;;;;;18.83;14.00;;;23.10;99.90;;;;;;5104832;28;20668;-68
2022/08/25 08:31:52;;;;;;;20.75;14.63;;;23.20;99.90;;;;;;5105980;28;20292;-67
2022/08/25 08:34:19;;;;;;;27.40;15.05;;;23.20;99.90;;;;;;5107659;28;20656;-67
2022/08/25 08:36:46;;;;;;;17.20;14.65;;;23.30;99.90;;;;;;5108431;28;20194;-68
2022/08/25 08:39:14;;;;;;;22.65;16.00;;;23.30;99.90;;;;;;5107619;28;20233;-68
2022/08/25 08:44:53;;;;;;;16.38;14.35;;;23.40;99.90;;;;;;5105037;28;20210;-68
2022/08/25 08:47:28;;;;;;;20.33;14.35;;;23.50;99.90;;;;;;5102972;28;20660;-68
2022/08/25 08:50:02;;;;;;;18.40;14.43;;;23.50;99.90;;;;;;5104753;28;20190;-68
2022/08/25 08:52:40;;;;;;;22.73;14.63;;;23.60;99.90;;;;;;5107815;28;20198;-68
2022/08/25 08:55:15;;;;;;;24.98;15.30;;;23.70;99.90;;;;;;5107644;28;20205;-67
2022/08/25 08:57:48;;;;;;;19.83;14.88;;;23.70;99.90;;;;;;5105419;28;20214;-68
2022/08/25 09:00:16;;;;;;;20.63;14.70;;;23.70;99.90;;;;;;5106471;28;20198;-68
2022/08/25 09:02:52;;;;;;;15.52;13.93;;;23.80;99.90;;;;;;5107046;28;20293;-67
2022/08/25 09:05:24;;;;;;;21.88;14.90;;;23.90;99.90;;;;;;5107929;28;20198;-68
2022/08/25 09:07:57;;;;;;;17.30;14.32;;;24.00;99.90;;;;;;5107925;28;20198;-68
2022/08/25 09:10:30;;;;;;;17.08;13.77;;;24.10;99.90;;;;;;5107726;28;20232;-67
2022/08/25 09:13:05;;;;;;;17.83;14.85;;;24.10;99.90;;;;;;5105096;28;20194;-67
2022/08/25 09:18:34;;;;;;;15.88;14.20;;;24.10;99.90;;;;;;5105750;28;20236;-68
2022/08/25 09:21:14;;;;;;;19.15;14.48;;;24.20;99.90;;;;;;5105830;28;20559;-68
2022/08/25 09:23:55;;;;;;;16.33;13.60;;;24.40;99.90;;;;;;5105548;28;20304;-68
2022/08/25 09:26:33;;;;;;;19.88;14.70;;;24.40;99.90;;;;;;5105623;28;20202;-68
2022/08/25 09:29:04;;;;;;;14.98;13.30;;;24.50;99.90;;;;;;5102331;28;20652;-68
2022/08/25 09:31:34;;;;;;;15.30;13.85;;;24.60;99.90;;;;;;5107255;28;20281;-67
2022/08/25 09:34:04;;;;;;;15.10;13.10;;;24.70;99.90;;;;;;5104085;28;20285;-68
2022/08/25 09:36:32;;;;;;;22.00;14.10;;;24.80;99.90;;;;;;5107195;28;20206;-67
2022/08/25 09:38:59;;;;;;;15.27;13.40;;;24.90;99.90;;;;;;5105804;28;20282;-66
2022/08/25 09:41:43;;;;;;;20.25;14.13;;;25.00;99.90;;;;;;5107319;28;20194;-67
2022/08/25 09:44:23;;;;;;;16.55;12.80;;;25.20;99.90;;;;;;5104143;28;20569;-67
2022/08/25 09:47:03;;;;;;;14.23;11.93;;;25.30;99.90;;;;;;5104341;28;20194;-67
2022/08/25 09:49:37;;;;;;;16.63;12.32;;;25.40;99.90;;;;;;5106378;28;20198;-67
2022/08/25 09:52:39;;;;;;;16.23;11.55;;;25.60;99.90;;;;;;5105361;28;20608;-67
2022/08/25 09:55:29;;;;;;;13.98;11.35;;;25.70;99.90;;;;;;5101153;28;20293;-67
2022/08/25 09:57:58;;;;;;;15.60;11.68;;;25.90;99.90;;;;;;5104274;28;20214;-67
2022/08/25 10:00:27;;;;;;;16.38;11.18;;;25.90;99.90;;;;;;5105953;28;20202;-68
2022/08/25 10:03:07;;;;;;;19.95;11.10;;;25.90;99.90;;;;;;5106641;28;20206;-67
2022/08/25 10:05:37;;;;;;;13.10;10.82;;;25.80;99.90;;;;;;5107123;28;20212;-67
2022/08/25 10:08:11;;;;;;;13.30;10.60;;;25.80;99.90;;;;;;5103605;28;20234;-67
2022/08/25 10:10:44;;;;;;;13.70;9.95;;;25.80;99.90;;;;;;5102869;28;20248;-67
2022/08/25 10:13:17;;;;;;;13.30;10.02;;;25.90;99.90;;;;;;5095053;28;20556;-67
2022/08/25 10:15:44;;;;;;;11.73;9.40;;;25.90;99.90;;;;;;5106947;28;20210;-67
2022/08/25 10:18:24;;;;;;;14.52;9.73;;;25.90;99.90;;;;;;5107754;28;20240;-67
2022/08/25 10:21:14;;;;;;;12.20;9.07;;;26.00;99.90;;;;;;5100423;28;20195;-67
2022/08/25 10:23:46;;;;;;;10.93;9.82;;;26.20;99.90;;;;;;5102282;28;20230;-67
2022/08/25 10:26:22;;;;;;;13.20;8.50;;;26.10;99.90;;;;;;5106560;28;20618;-67
2022/08/25 10:29:01;;;;;;;9.65;8.48;;;26.20;99.90;;;;;;5107324;28;20210;-67
2022/08/25 10:31:35;;;;;;;11.80;9.25;;;26.20;99.90;;;;;;5107023;28;20206;-67
2022/08/25 10:34:18;;;;;;;9.57;8.77;;;26.10;99.90;;;;;;5107108;28;20294;-67
2022/08/25 10:36:56;;;;;;;12.82;8.75;;;26.10;99.90;;;;;;5106993;28;20206;-67
2022/08/25 10:39:37;;;;;;;13.57;9.25;;;26.10;99.90;;;;;;5103277;28;20225;-67
2022/08/25 10:42:21;;;;;;;9.63;8.07;;;26.10;99.90;;;;;;5104621;28;20194;-67
2022/08/25 10:48:18;;;;;;;13.57;8.10;;;26.40;99.90;;;;;;5098477;28;20222;-67
2022/08/25 10:50:50;;;;;;;12.20;7.93;;;26.60;99.90;;;;;;5105293;28;20722;-67
2022/08/25 10:53:27;;;;;;;11.45;7.90;;;26.80;99.90;;;;;;5106669;28;20227;-67
2022/08/25 10:56:10;;;;;;;12.20;7.47;;;26.90;99.90;;;;;;5091473;28;20209;-67
2022/08/25 10:59:05;;;;;;;10.73;7.20;;;27.00;99.90;;;;;;5090438;28;20825;-70
2022/08/25 11:01:44;;;;;;;9.27;7.65;;;27.00;99.90;;;;;;5110818;28;20197;-70
2022/08/25 11:04:15;;;;;;;14.27;7.93;;;27.00;99.90;;;;;;5110907;28;20214;-70
2022/08/25 11:06:48;;;;;;;10.20;6.93;;;27.10;99.90;;;;;;5110867;28;20209;-70
2022/08/25 11:09:19;;;;;;;10.05;7.10;;;27.20;99.90;;;;;;5109714;28;20637;-70
2022/08/25 11:11:52;;;;;;;8.75;6.95;;;27.40;99.90;;;;;;5110112;28;20197;-70
2022/08/25 11:14:23;;;;;;;8.75;7.05;;;27.60;99.90;;;;;;5109681;28;20209;-70
2022/08/25 11:16:57;;;;;;;8.55;7.10;;;27.70;99.90;;;;;;5109627;28;20194;-70
2022/08/25 11:19:30;;;;;;;11.05;6.95;;;27.80;99.90;;;;;;5103008;28;20225;-70
2022/08/25 11:22:04;;;;;;;10.82;7.03;;;27.70;99.90;;;;;;5108000;28;20679;-70
2022/08/25 11:24:40;;;;;;;9.40;6.68;;;27.80;99.90;;;;;;5107827;28;20234;-70
2022/08/25 11:27:14;;;;;;;9.68;6.82;;;27.90;99.90;;;;;;5096766;28;20186;-70
2022/08/25 11:29:53;;;;;;;9.48;6.35;;;28.00;99.90;;;;;;5109621;28;20213;-70
2022/08/25 11:32:23;;;;;;;9.65;6.72;;;28.10;99.90;;;;;;5108903;28;20209;-70
2022/08/25 11:34:52;;;;;;;7.43;6.32;;;28.20;99.90;;;;;;5109937;28;20234;-70
2022/08/25 11:37:24;;;;;;;8.60;5.90;;;28.20;99.90;;;;;;5108872;28;20198;-70
2022/08/25 11:40:33;;;;;;;11.75;7.32;;;28.30;99.90;;;;;;5104474;28;20222;-70
2022/08/25 11:43:08;;;;;;;12.43;7.00;;;28.20;99.90;;;;;;5076823;28;20924;-71
2022/08/25 11:46:08;;;;;;;7.38;6.47;;;28.20;99.90;;;;;;5107994;28;20198;-70
2022/08/25 11:48:42;;;;;;;9.20;6.30;;;28.20;99.90;;;;;;5107342;28;20652;-71
2022/08/25 11:51:11;;;;;;;10.50;6.25;;;28.30;99.90;;;;;;5102908;28;20824;-71
2022/08/25 11:53:39;;;;;;;9.82;6.03;;;28.30;99.90;;;;;;5109282;28;20209;-70
2022/08/25 11:56:11;;;;;;;14.02;6.40;;;28.10;99.90;;;;;;5109021;28;20563;-71
2022/08/25 11:58:49;;;;;;;8.18;6.05;;;28.10;99.90;;;;;;5106955;28;20695;-71
2022/08/25 12:02:07;;;;;;;8.23;6.65;;;28.10;99.90;;;;;;5108981;28;20281;-70
2022/08/25 12:04:39;;;;;;;7.53;6.03;;;28.10;99.90;;;;;;5101125;28;20694;-70
2022/08/25 12:07:22;;;;;;;13.27;6.85;;;28.10;99.90;;;;;;5107694;28;20695;-71
2022/08/25 12:10:19;;;;;;;8.93;5.90;;;28.20;99.90;;;;;;5103472;28;20210;-71
2022/08/25 12:13:21;;;;;;;10.27;6.28;;;28.30;99.90;;;;;;5106286;28;20205;-70
2022/08/25 12:16:07;;;;;;;9.68;6.22;;;28.20;99.90;;;;;;5106701;28;20202;-71
2022/08/25 12:18:44;;;;;;;9.98;7.25;;;28.20;99.90;;;;;;5078473;28;20970;-71
2022/08/25 12:21:32;;;;;;;10.38;6.53;;;28.10;99.90;;;;;;5093009;28;20657;-71
2022/08/25 12:24:13;;;;;;;11.02;6.43;;;28.20;99.90;;;;;;5104778;28;20222;-71
2022/08/25 12:26:57;;;;;;;11.30;5.80;;;28.40;99.90;;;;;;5109396;28;20195;-71
2022/08/25 12:29:30;;;;;;;9.23;6.22;;;28.60;99.90;;;;;;5109449;28;20206;-71
2022/08/25 12:32:17;;;;;;;9.52;6.20;;;28.80;99.90;;;;;;5106065;28;20201;-71
2022/08/25 12:35:15;;;;;;;10.10;6.20;;;29.00;99.90;;;;;;5087588;28;20227;-71
2022/08/25 12:38:01;;;;;;;13.63;6.43;;;29.10;99.90;;;;;;5087030;28;20195;-71
2022/08/25 12:40:32;;;;;;;11.55;6.53;;;29.10;99.90;;;;;;5086593;28;20223;-71
2022/08/25 12:43:10;;;;;;;9.05;6.40;;;29.00;99.90;;;;;;5093089;28;20627;-71
2022/08/25 12:45:43;;;;;;;9.45;6.35;;;28.80;99.90;;;;;;5105828;28;20198;-71
2022/08/25 12:48:41;;;;;;;13.68;6.05;;;28.80;99.90;;;;;;5090583;28;20207;-71
2022/08/25 12:51:15;;;;;;;8.25;5.82;;;29.00;99.90;;;;;;5086090;28;20226;-71
2022/08/25 12:53:47;;;;;;;7.82;5.57;;;29.10;99.90;;;;;;5086357;28;20199;-71
2022/08/25 12:56:22;;;;;;;8.02;5.88;;;29.30;99.90;;;;;;5086530;28;20570;-71
2022/08/25 12:58:55;;;;;;;9.05;6.07;;;29.40;99.90;;;;;;5086291;28;20753;-70
2022/08/25 13:01:33;;;;;;;12.70;7.13;;;29.40;99.90;;;;;;5086238;28;20198;-70
2022/08/25 13:04:26;;;;;;;8.00;5.75;;;29.40;99.90;;;;;;5086435;28;20202;-70
2022/08/25 13:07:04;;;;;;;12.43;6.47;;;29.40;99.90;;;;;;5075895;28;20207;-70
2022/08/25 13:10:02;;;;;;;9.50;6.22;;;29.40;99.90;;;;;;5086561;28;20195;-70
2022/08/25 13:12:36;;;;;;;8.40;5.65;;;29.60;99.90;;;;;;5097511;28;20202;-71
2022/08/25 13:15:04;;;;;;;8.10;5.22;;;29.60;99.90;;;;;;5092761;28;20198;-71